createdAt,value
2018-08-16T00:01:53.875Z,5.13
2018-08-16T00:06:57.560Z,7.13
2018-08-16T00:12:01.292Z,7.10
2018-08-16T00:17:05.211Z,5.30
2018-08-16T00:22:08.768Z,5.90
2018-08-16T00:27:12.567Z,5.40
2018-08-16T00:32:16.294Z,5.77
2018-08-16T00:37:20.017Z,5.50
2018-08-16T00:42:23.548Z,6.50
2018-08-16T00:47:27.144Z,5.30
2018-08-16T00:52:30.865Z,6.03
2018-08-16T00:57:34.582Z,5.87
2018-08-16T01:02:38.298Z,5.30
2018-08-16T01:07:41.971Z,6.57
2018-08-16T01:12:45.543Z,7.93
2018-08-16T01:17:49.198Z,7.93
2018-08-16T01:22:52.927Z,7.97
2018-08-16T01:27:56.742Z,7.80
2018-08-16T01:33:00.482Z,9.77
2018-08-16T01:38:04.090Z,7.70
2018-08-16T01:43:08.816Z,7.80
2018-08-16T01:48:13.091Z,7.53
2018-08-16T01:53:16.629Z,9.30
2018-08-16T01:58:20.368Z,7.87
2018-08-16T02:03:24.047Z,13.20
2018-08-16T02:08:27.672Z,12.57
2018-08-16T02:13:31.238Z,10.70
2018-08-16T02:18:34.867Z,12.50
2018-08-16T02:23:38.414Z,13.40
2018-08-16T02:28:42.082Z,11.07
2018-08-16T02:33:45.712Z,13.10
2018-08-16T02:38:49.591Z,13.63
2018-08-16T02:43:53.162Z,13.23
2018-08-16T02:48:56.866Z,12.83
2018-08-16T02:54:00.460Z,17.77
2018-08-16T02:59:04.128Z,15.77
2018-08-16T03:04:07.853Z,12.50
2018-08-16T03:09:12.010Z,17.90
2018-08-16T03:14:15.667Z,15.13
2018-08-16T03:19:19.423Z,15.10
2018-08-16T03:24:22.956Z,18.67
2018-08-16T03:29:26.728Z,21.63
2018-08-16T03:34:30.337Z,17.90
2018-08-16T03:39:34.129Z,19.43
2018-08-16T03:44:37.752Z,18.23
2018-08-16T03:49:41.416Z,15.13
2018-08-16T03:54:45.067Z,18.20
2018-08-16T03:59:48.738Z,17.30
2018-08-16T04:04:52.358Z,17.60
2018-08-16T04:09:56.033Z,18.23
2018-08-16T04:14:59.596Z,16.53
2018-08-16T04:20:03.897Z,21.00
2018-08-16T04:25:07.465Z,18.77
2018-08-16T04:30:17.111Z,17.50
2018-08-16T04:35:20.744Z,19.63
2018-08-16T04:40:24.361Z,17.80
2018-08-16T04:45:27.945Z,15.43
2018-08-16T04:50:31.579Z,20.40
2018-08-16T04:55:35.125Z,20.40
2018-08-16T05:00:38.868Z,21.00
2018-08-16T05:05:42.495Z,20.03
2018-08-16T05:10:46.125Z,19.27
2018-08-16T05:15:49.830Z,23.07
2018-08-16T05:20:53.932Z,22.07
2018-08-16T05:25:57.582Z,22.50
2018-08-16T05:31:01.273Z,19.17
2018-08-16T05:36:05.158Z,19.43
2018-08-16T05:41:08.764Z,17.43
2018-08-16T05:46:22.483Z,15.27
2018-08-16T05:51:26.109Z,15.03
2018-08-16T05:56:29.735Z,20.57
2018-08-16T06:01:33.517Z,15.83
2018-08-16T06:06:37.075Z,14.97
2018-08-16T06:11:40.686Z,12.40
2018-08-16T06:16:44.420Z,14.87
2018-08-16T06:21:48.087Z,11.13
2018-08-16T06:26:51.893Z,10.83
2018-08-16T06:31:55.631Z,10.73
2018-08-16T06:36:59.292Z,10.73
2018-08-16T06:42:03.262Z,11.70
2018-08-16T06:47:06.922Z,9.43
2018-08-16T06:52:10.634Z,9.50
2018-08-16T06:57:14.970Z,11.47
2018-08-16T07:02:18.618Z,11.10
2018-08-16T07:07:22.301Z,12.77
2018-08-16T07:12:26.018Z,12.03
2018-08-16T07:17:29.777Z,11.47
2018-08-16T07:22:34.693Z,13.47
2018-08-16T07:27:38.593Z,11.77
2018-08-16T07:32:42.224Z,12.60
2018-08-16T07:37:45.853Z,11.10
2018-08-16T07:42:49.491Z,14.17
2018-08-16T07:47:53.541Z,12.43
2018-08-16T07:52:57.186Z,10.87
2018-08-16T07:58:00.836Z,11.90
2018-08-16T08:03:04.484Z,10.43
2018-08-16T08:08:08.935Z,9.53
2018-08-16T08:13:12.725Z,8.50
2018-08-16T08:18:16.361Z,12.53
2018-08-16T08:23:25.780Z,9.37
2018-08-16T08:28:29.429Z,7.20
2018-08-16T08:33:33.142Z,8.10
2018-08-16T08:38:36.683Z,9.97
2018-08-16T08:43:51.559Z,8.70
2018-08-16T08:48:55.341Z,10.20
2018-08-16T08:54:43.993Z,7.90
2018-08-16T08:59:47.578Z,9.80
2018-08-16T09:04:51.289Z,8.17
2018-08-16T09:11:10.348Z,9.00
2018-08-16T09:16:19.261Z,10.07
2018-08-16T09:21:22.790Z,11.83
2018-08-16T09:26:32.911Z,8.33
2018-08-16T09:31:47.959Z,6.67
2018-08-16T09:36:52.353Z,8.93
2018-08-16T09:41:57.072Z,6.93
2018-08-16T09:47:14.203Z,7.07
2018-08-16T09:52:19.014Z,9.70
2018-08-16T09:57:22.636Z,10.17
2018-08-16T10:02:26.317Z,8.57
2018-08-16T10:07:29.916Z,9.43
2018-08-16T10:12:33.745Z,6.47
2018-08-16T10:17:37.432Z,5.73
2018-08-16T10:22:41.451Z,9.37
2018-08-16T10:27:44.946Z,5.77
2018-08-16T10:32:48.698Z,5.40
2018-08-16T10:37:52.352Z,6.63
2018-08-16T10:42:55.956Z,6.03
2018-08-16T10:47:59.491Z,5.23
2018-08-16T10:53:03.209Z,6.43
2018-08-16T10:58:06.978Z,5.43
2018-08-16T11:03:13.659Z,6.10
2018-08-16T11:08:17.397Z,8.07
2018-08-16T11:13:21.210Z,7.57
2018-08-16T11:18:24.802Z,6.63
2018-08-16T11:23:28.387Z,6.07
2018-08-16T11:28:32.240Z,7.37
2018-08-16T11:33:35.978Z,5.93
2018-08-16T11:38:39.820Z,5.87
2018-08-16T11:43:43.921Z,7.07
2018-08-16T11:48:47.730Z,5.67
2018-08-16T11:53:51.566Z,5.83
2018-08-16T11:58:56.102Z,7.43
2018-08-16T12:03:59.705Z,6.43
2018-08-16T12:09:03.623Z,7.30
2018-08-16T12:14:07.616Z,7.07
2018-08-16T12:19:11.571Z,6.47
2018-08-16T12:24:15.348Z,4.80
2018-08-16T12:29:18.991Z,6.87
2018-08-16T12:34:22.603Z,5.23
2018-08-16T12:39:40.376Z,5.77
2018-08-16T12:44:45.361Z,6.87
2018-08-16T12:49:48.987Z,6.47
2018-08-16T12:54:52.665Z,6.03
2018-08-16T12:59:56.329Z,5.03
2018-08-16T13:05:00.098Z,5.33
2018-08-16T13:10:04.248Z,5.40
2018-08-16T13:15:15.954Z,4.87
2018-08-16T13:20:19.890Z,6.60
2018-08-16T13:25:25.332Z,4.70
2018-08-16T13:30:30.347Z,5.40
2018-08-16T13:35:46.987Z,6.70
2018-08-16T13:40:52.947Z,5.07
2018-08-16T13:45:57.999Z,3.90
2018-08-16T13:51:02.483Z,4.43
2018-08-16T13:56:07.922Z,7.13
2018-08-16T14:01:11.517Z,4.07
2018-08-16T14:06:15.177Z,6.70
2018-08-16T14:11:18.786Z,7.10
2018-08-16T14:16:22.390Z,4.50
2018-08-16T14:21:26.019Z,4.73
2018-08-16T14:26:29.633Z,6.30
2018-08-16T14:31:33.716Z,4.37
2018-08-16T14:36:38.041Z,5.00
2018-08-16T14:41:42.051Z,8.33
2018-08-16T14:46:45.666Z,4.23
2018-08-16T14:51:49.370Z,4.93
2018-08-16T14:56:53.073Z,5.23
2018-08-16T15:01:56.615Z,6.37
2018-08-16T15:07:00.355Z,4.63
2018-08-16T15:12:03.894Z,5.33
2018-08-16T15:17:07.537Z,5.13
2018-08-16T15:22:28.997Z,5.67
2018-08-16T15:27:32.683Z,6.13
2018-08-16T15:32:36.405Z,8.30
2018-08-16T15:37:40.198Z,5.90
2018-08-16T15:42:43.822Z,6.43
2018-08-16T15:47:47.465Z,6.30
2018-08-16T15:52:51.029Z,5.93
2018-08-16T15:57:54.661Z,6.97
2018-08-16T16:02:58.187Z,6.33
2018-08-16T16:08:01.891Z,7.77
2018-08-16T16:13:05.510Z,7.57
2018-08-16T16:18:09.329Z,8.20
2018-08-16T16:23:12.907Z,9.13
2018-08-16T16:28:17.526Z,7.20
2018-08-16T16:33:21.165Z,7.07
2018-08-16T16:38:25.082Z,7.63
2018-08-16T16:43:28.624Z,7.70
2018-08-16T16:48:32.452Z,6.67
2018-08-16T16:53:36.108Z,7.87
2018-08-16T16:58:40.437Z,7.50
2018-08-16T17:03:44.582Z,6.80
2018-08-16T17:08:48.240Z,10.27
2018-08-16T17:13:52.878Z,9.30
2018-08-16T17:18:56.581Z,8.87
2018-08-16T17:24:00.630Z,7.20
2018-08-16T17:29:04.291Z,7.43
2018-08-16T17:34:07.929Z,8.20
2018-08-16T17:39:12.024Z,9.23
2018-08-16T17:44:15.570Z,8.63
2018-08-16T17:49:19.240Z,8.63
2018-08-16T17:54:22.759Z,9.80
2018-08-16T17:59:26.746Z,9.43
2018-08-16T18:04:30.400Z,10.17
2018-08-16T18:09:34.039Z,13.97
2018-08-16T18:14:38.082Z,12.27
2018-08-16T18:19:41.974Z,13.53
2018-08-16T18:24:45.608Z,13.83
2018-08-16T18:29:49.281Z,11.10
2018-08-16T18:34:53.046Z,12.43
2018-08-16T18:39:57.043Z,13.53
2018-08-16T18:45:00.747Z,11.70
2018-08-16T18:50:04.467Z,12.27
2018-08-16T18:55:08.396Z,12.30
2018-08-16T19:00:14.595Z,9.57
2018-08-16T19:05:18.383Z,10.47
2018-08-16T19:10:22.009Z,9.13
2018-08-16T19:15:25.530Z,9.30
2018-08-16T19:20:29.160Z,8.50
2018-08-16T19:25:32.759Z,7.77
2018-08-16T19:30:36.377Z,8.37
2018-08-16T19:35:39.965Z,11.50
2018-08-16T19:40:43.588Z,9.70
2018-08-16T19:45:47.127Z,7.37
2018-08-16T19:50:51.441Z,7.97
2018-08-16T19:55:55.064Z,7.40
2018-08-16T20:00:58.967Z,7.70
2018-08-16T20:06:03.026Z,8.57
2018-08-16T20:11:07.428Z,9.60
2018-08-16T20:16:11.085Z,9.20
2018-08-16T20:21:14.764Z,9.97
2018-08-16T20:26:18.419Z,10.07
2018-08-16T20:31:22.796Z,11.43
2018-08-16T20:36:26.483Z,9.87
2018-08-16T20:41:30.222Z,9.73
2018-08-16T20:46:34.575Z,8.07
2018-08-16T20:51:38.859Z,11.27
2018-08-16T20:56:42.992Z,10.83
2018-08-16T21:01:49.284Z,9.40
2018-08-16T21:06:53.893Z,10.30
2018-08-16T21:11:58.455Z,9.47
2018-08-16T21:17:02.098Z,9.37
2018-08-16T21:22:05.987Z,11.20
2018-08-16T21:27:09.641Z,11.17
2018-08-16T21:32:13.493Z,10.70
2018-08-16T21:37:16.979Z,11.07
2018-08-16T21:42:20.588Z,13.60
2018-08-16T21:47:24.913Z,10.03
2018-08-16T21:52:28.569Z,13.40
2018-08-16T21:57:32.718Z,11.33
2018-08-16T22:02:36.413Z,11.83
2018-08-16T22:08:12.913Z,12.10
2018-08-16T22:13:16.557Z,12.70
2018-08-16T22:18:20.292Z,12.57
2018-08-16T22:23:23.947Z,10.60
2018-08-16T22:28:27.848Z,11.97
2018-08-16T22:33:31.967Z,12.87
2018-08-16T22:38:35.487Z,14.03
2018-08-16T22:43:39.298Z,14.33
2018-08-16T22:48:42.808Z,13.00
2018-08-16T22:53:46.436Z,13.20
2018-08-16T22:58:50.090Z,12.90
2018-08-16T23:03:53.715Z,14.73
2018-08-16T23:08:57.389Z,13.87
2018-08-16T23:14:01.051Z,15.57
2018-08-16T23:19:04.586Z,15.10
2018-08-16T23:24:08.314Z,17.37
2018-08-16T23:29:12.562Z,13.30
2018-08-16T23:34:16.808Z,14.50
2018-08-16T23:39:20.993Z,12.30
2018-08-16T23:44:24.662Z,15.80
2018-08-16T23:49:28.318Z,11.53
2018-08-16T23:54:32.010Z,12.43
2018-08-16T23:59:35.833Z,15.77
